sensor_id;sensor_type;location;lat;lon;timestamp;temperature;humidity
76855;DHT22;66343;44.588;33.450;2023-07-13T00:00:40;22.20;62.53
76855;DHT22;66343;44.588;33.450;2023-07-13T00:03:12;22.17;62.44
76855;DHT22;66343;44.588;33.450;2023-07-13T00:05:45;22.19;62.41
76855;DHT22;66343;44.588;33.450;2023-07-13T00:08:17;22.20;62.36
76855;DHT22;66343;44.588;33.450;2023-07-13T00:10:46;22.19;62.42
76855;DHT22;66343;44.588;33.450;2023-07-13T00:13:17;22.20;62.39
76855;DHT22;66343;44.588;33.450;2023-07-13T00:15:46;22.19;62.54
76855;DHT22;66343;44.588;33.450;2023-07-13T00:18:20;22.21;62.21
76855;DHT22;66343;44.588;33.450;2023-07-13T00:20:49;22.23;62.08
76855;DHT22;66343;44.588;33.450;2023-07-13T00:23:22;22.18;62.15
76855;DHT22;66343;44.588;33.450;2023-07-13T00:25:51;22.14;62.03
76855;DHT22;66343;44.588;33.450;2023-07-13T00:28:23;22.11;62.08
76855;DHT22;66343;44.588;33.450;2023-07-13T00:30:56;22.04;62.23
76855;DHT22;66343;44.588;33.450;2023-07-13T00:33:26;22.06;62.05
76855;DHT22;66343;44.588;33.450;2023-07-13T00:35:57;22.04;61.87
76855;DHT22;66343;44.588;33.450;2023-07-13T00:38:27;21.97;61.96
76855;DHT22;66343;44.588;33.450;2023-07-13T00:40:56;21.98;61.89
76855;DHT22;66343;44.588;33.450;2023-07-13T00:43:27;22.01;61.79
76855;DHT22;66343;44.588;33.450;2023-07-13T00:46:21;22.03;61.34
76855;DHT22;66343;44.588;33.450;2023-07-13T00:48:54;22.03;61.32
76855;DHT22;66343;44.588;33.450;2023-07-13T00:51:32;21.99;60.96
76855;DHT22;66343;44.588;33.450;2023-07-13T00:54:09;21.97;61.29
76855;DHT22;66343;44.588;33.450;2023-07-13T00:56:43;22.01;61.11
76855;DHT22;66343;44.588;33.450;2023-07-13T00:59:17;22.07;60.70
76855;DHT22;66343;44.588;33.450;2023-07-13T01:01:47;22.09;60.31
76855;DHT22;66343;44.588;33.450;2023-07-13T01:04:20;22.04;60.35
76855;DHT22;66343;44.588;33.450;2023-07-13T01:06:54;21.96;60.36
76855;DHT22;66343;44.588;33.450;2023-07-13T01:09:25;21.92;60.51
76855;DHT22;66343;44.588;33.450;2023-07-13T01:11:57;21.89;60.50
76855;DHT22;66343;44.588;33.450;2023-07-13T01:14:25;21.82;60.65
76855;DHT22;66343;44.588;33.450;2023-07-13T01:16:56;21.82;60.62
76855;DHT22;66343;44.588;33.450;2023-07-13T01:19:35;21.90;60.36
76855;DHT22;66343;44.588;33.450;2023-07-13T01:22:14;21.91;60.28
76855;DHT22;66343;44.588;33.450;2023-07-13T01:24:46;21.89;60.19
76855;DHT22;66343;44.588;33.450;2023-07-13T01:27:16;21.83;60.02
76855;DHT22;66343;44.588;33.450;2023-07-13T01:29:50;21.90;59.79
76855;DHT22;66343;44.588;33.450;2023-07-13T01:32:23;21.93;59.37
76855;DHT22;66343;44.588;33.450;2023-07-13T01:34:55;21.97;59.26
76855;DHT22;66343;44.588;33.450;2023-07-13T01:37:25;21.98;58.83
76855;DHT22;66343;44.588;33.450;2023-07-13T01:39:59;21.98;59.14
76855;DHT22;66343;44.588;33.450;2023-07-13T01:42:34;21.92;59.30
76855;DHT22;66343;44.588;33.450;2023-07-13T01:45:09;21.84;59.72
76855;DHT22;66343;44.588;33.450;2023-07-13T01:47:38;21.85;59.57
76855;DHT22;66343;44.588;33.450;2023-07-13T01:50:09;21.87;59.10
76855;DHT22;66343;44.588;33.450;2023-07-13T01:52:42;21.92;59.22
76855;DHT22;66343;44.588;33.450;2023-07-13T01:55:13;21.87;58.97
76855;DHT22;66343;44.588;33.450;2023-07-13T01:57:51;21.83;59.22
76855;DHT22;66343;44.588;33.450;2023-07-13T02:00:21;21.75;59.23
76855;DHT22;66343;44.588;33.450;2023-07-13T02:02:50;21.77;59.32
76855;DHT22;66343;44.588;33.450;2023-07-13T02:05:19;21.75;58.75
76855;DHT22;66343;44.588;33.450;2023-07-13T02:07:49;21.74;58.96
76855;DHT22;66343;44.588;33.450;2023-07-13T02:10:20;21.68;59.01
76855;DHT22;66343;44.588;33.450;2023-07-13T02:12:53;21.69;58.51
76855;DHT22;66343;44.588;33.450;2023-07-13T02:15:22;21.72;58.74
76855;DHT22;66343;44.588;33.450;2023-07-13T02:17:51;21.73;58.48
76855;DHT22;66343;44.588;33.450;2023-07-13T02:20:21;21.83;58.22
76855;DHT22;66343;44.588;33.450;2023-07-13T02:22:50;21.85;57.71
76855;DHT22;66343;44.588;33.450;2023-07-13T02:25:23;21.85;57.93
76855;DHT22;66343;44.588;33.450;2023-07-13T02:27:59;21.82;57.90
76855;DHT22;66343;44.588;33.450;2023-07-13T02:30:32;21.89;57.94
76855;DHT22;66343;44.588;33.450;2023-07-13T02:33:02;21.91;57.90
76855;DHT22;66343;44.588;33.450;2023-07-13T02:35:31;21.93;57.29
76855;DHT22;66343;44.588;33.450;2023-07-13T02:38:00;21.98;57.17
76855;DHT22;66343;44.588;33.450;2023-07-13T02:40:31;21.98;56.65
76855;DHT22;66343;44.588;33.450;2023-07-13T02:43:04;21.95;57.16
76855;DHT22;66343;44.588;33.450;2023-07-13T02:45:33;21.94;57.42
76855;DHT22;66343;44.588;33.450;2023-07-13T02:48:03;21.96;57.55
76855;DHT22;66343;44.588;33.450;2023-07-13T02:50:32;21.99;56.87
76855;DHT22;66343;44.588;33.450;2023-07-13T02:53:02;22.05;57.03
76855;DHT22;66343;44.588;33.450;2023-07-13T02:55:32;22.05;56.35
76855;DHT22;66343;44.588;33.450;2023-07-13T02:58:01;21.98;56.85
76855;DHT22;66343;44.588;33.450;2023-07-13T03:00:30;21.94;56.87
76855;DHT22;66343;44.588;33.450;2023-07-13T03:03:00;21.89;57.32
76855;DHT22;66343;44.588;33.450;2023-07-13T03:05:29;21.84;56.84
76855;DHT22;66343;44.588;33.450;2023-07-13T03:07:58;21.90;56.65
76855;DHT22;66343;44.588;33.450;2023-07-13T03:10:32;21.93;56.65
76855;DHT22;66343;44.588;33.450;2023-07-13T03:13:02;21.95;56.30
76855;DHT22;66343;44.588;33.450;2023-07-13T03:15:32;22.02;55.92
76855;DHT22;66343;44.588;33.450;2023-07-13T03:18:05;22.02;55.18
76855;DHT22;66343;44.588;33.450;2023-07-13T03:20:35;22.05;55.46
76855;DHT22;66343;44.588;33.450;2023-07-13T03:23:10;22.13;55.34
76855;DHT22;66343;44.588;33.450;2023-07-13T03:25:39;22.12;54.71
76855;DHT22;66343;44.588;33.450;2023-07-13T03:28:09;22.12;54.62
76855;DHT22;66343;44.588;33.450;2023-07-13T03:30:47;22.12;54.46
76855;DHT22;66343;44.588;33.450;2023-07-13T03:33:18;22.10;54.48
76855;DHT22;66343;44.588;33.450;2023-07-13T03:35:47;22.14;54.23
76855;DHT22;66343;44.588;33.450;2023-07-13T03:38:18;22.21;54.78
76855;DHT22;66343;44.588;33.450;2023-07-13T03:40:49;22.28;53.97
76855;DHT22;66343;44.588;33.450;2023-07-13T03:43:21;22.34;53.88
76855;DHT22;66343;44.588;33.450;2023-07-13T03:45:55;22.38;53.87
76855;DHT22;66343;44.588;33.450;2023-07-13T03:48:34;22.43;53.35
76855;DHT22;66343;44.588;33.450;2023-07-13T03:51:03;22.49;53.47
76855;DHT22;66343;44.588;33.450;2023-07-13T03:53:34;22.51;53.49
76855;DHT22;66343;44.588;33.450;2023-07-13T03:56:04;22.55;53.38
76855;DHT22;66343;44.588;33.450;2023-07-13T03:58:39;22.56;54.17
76855;DHT22;66343;44.588;33.450;2023-07-13T04:01:31;22.56;54.14
76855;DHT22;66343;44.588;33.450;2023-07-13T04:04:02;22.62;53.41
76855;DHT22;66343;44.588;33.450;2023-07-13T04:06:39;22.65;53.33
76855;DHT22;66343;44.588;33.450;2023-07-13T04:09:12;22.68;53.29
76855;DHT22;66343;44.588;33.450;2023-07-13T04:11:42;22.71;53.20
76855;DHT22;66343;44.588;33.450;2023-07-13T04:14:15;22.71;52.77
76855;DHT22;66343;44.588;33.450;2023-07-13T04:16:46;22.76;52.97
76855;DHT22;66343;44.588;33.450;2023-07-13T04:19:15;22.83;53.19
76855;DHT22;66343;44.588;33.450;2023-07-13T04:21:47;22.93;52.72
76855;DHT22;66343;44.588;33.450;2023-07-13T04:24:17;23.00;52.16
76855;DHT22;66343;44.588;33.450;2023-07-13T04:26:51;23.07;51.55
76855;DHT22;66343;44.588;33.450;2023-07-13T04:29:23;23.15;52.48
76855;DHT22;66343;44.588;33.450;2023-07-13T04:31:54;23.29;53.36
76855;DHT22;66343;44.588;33.450;2023-07-13T04:34:25;23.40;52.55
76855;DHT22;66343;44.588;33.450;2023-07-13T04:36:55;23.53;51.13
76855;DHT22;66343;44.588;33.450;2023-07-13T04:39:24;23.65;51.72
76855;DHT22;66343;44.588;33.450;2023-07-13T04:41:53;23.71;50.23
76855;DHT22;66343;44.588;33.450;2023-07-13T04:44:24;23.75;48.72
76855;DHT22;66343;44.588;33.450;2023-07-13T04:46:59;23.82;49.22
76855;DHT22;66343;44.588;33.450;2023-07-13T04:49:32;23.86;48.98
76855;DHT22;66343;44.588;33.450;2023-07-13T04:52:01;23.91;48.84
76855;DHT22;66343;44.588;33.450;2023-07-13T04:54:31;23.96;48.47
76855;DHT22;66343;44.588;33.450;2023-07-13T04:57:02;23.96;48.34
76855;DHT22;66343;44.588;33.450;2023-07-13T04:59:32;23.99;48.31
76855;DHT22;66343;44.588;33.450;2023-07-13T05:02:02;24.03;46.70
76855;DHT22;66343;44.588;33.450;2023-07-13T05:04:34;24.08;46.79
76855;DHT22;66343;44.588;33.450;2023-07-13T05:07:05;24.10;44.58
76855;DHT22;66343;44.588;33.450;2023-07-13T05:09:35;24.14;45.90
76855;DHT22;66343;44.588;33.450;2023-07-13T05:12:05;24.21;45.17
76855;DHT22;66343;44.588;33.450;2023-07-13T05:14:35;24.31;45.97
76855;DHT22;66343;44.588;33.450;2023-07-13T05:17:05;24.35;44.56
76855;DHT22;66343;44.588;33.450;2023-07-13T05:19:40;24.38;43.02
76855;DHT22;66343;44.588;33.450;2023-07-13T05:22:15;24.35;44.20
76855;DHT22;66343;44.588;33.450;2023-07-13T05:24:45;24.35;43.26
76855;DHT22;66343;44.588;33.450;2023-07-13T05:27:16;24.38;43.89
76855;DHT22;66343;44.588;33.450;2023-07-13T05:29:48;24.45;44.39
76855;DHT22;66343;44.588;33.450;2023-07-13T05:32:18;24.46;43.88
76855;DHT22;66343;44.588;33.450;2023-07-13T05:34:55;24.41;43.63
76855;DHT22;66343;44.588;33.450;2023-07-13T05:37:24;24.40;44.21
76855;DHT22;66343;44.588;33.450;2023-07-13T05:39:55;24.43;44.62
76855;DHT22;66343;44.588;33.450;2023-07-13T05:42:30;24.45;43.93
76855;DHT22;66343;44.588;33.450;2023-07-13T05:44:59;24.48;44.35
76855;DHT22;66343;44.588;33.450;2023-07-13T05:47:29;24.51;44.67
76855;DHT22;66343;44.588;33.450;2023-07-13T05:49:58;24.53;44.15
76855;DHT22;66343;44.588;33.450;2023-07-13T05:52:27;24.51;43.79
76855;DHT22;66343;44.588;33.450;2023-07-13T05:54:56;24.51;44.20
76855;DHT22;66343;44.588;33.450;2023-07-13T05:57:52;24.54;44.03
76855;DHT22;66343;44.588;33.450;2023-07-13T06:00:24;24.56;43.88
76855;DHT22;66343;44.588;33.450;2023-07-13T06:02:54;24.57;43.44
76855;DHT22;66343;44.588;33.450;2023-07-13T06:05:30;24.59;42.99
76855;DHT22;66343;44.588;33.450;2023-07-13T06:07:59;24.61;43.17
76855;DHT22;66343;44.588;33.450;2023-07-13T06:10:37;24.69;43.22
76855;DHT22;66343;44.588;33.450;2023-07-13T06:13:07;24.77;43.48
76855;DHT22;66343;44.588;33.450;2023-07-13T06:15:39;24.85;43.19
76855;DHT22;66343;44.588;33.450;2023-07-13T06:18:17;24.90;42.86
76855;DHT22;66343;44.588;33.450;2023-07-13T06:20:46;24.97;43.80
76855;DHT22;66343;44.588;33.450;2023-07-13T06:23:18;24.99;43.72
76855;DHT22;66343;44.588;33.450;2023-07-13T06:25:48;25.06;43.66
76855;DHT22;66343;44.588;33.450;2023-07-13T06:28:20;25.15;43.62
76855;DHT22;66343;44.588;33.450;2023-07-13T06:30:49;25.23;43.51
76855;DHT22;66343;44.588;33.450;2023-07-13T06:33:21;25.36;43.81
76855;DHT22;66343;44.588;33.450;2023-07-13T06:35:50;25.51;42.56
76855;DHT22;66343;44.588;33.450;2023-07-13T06:38:22;25.64;42.79
76855;DHT22;66343;44.588;33.450;2023-07-13T06:40:52;25.76;41.13
76855;DHT22;66343;44.588;33.450;2023-07-13T06:43:21;25.90;41.37
76855;DHT22;66343;44.588;33.450;2023-07-13T06:45:51;26.05;41.72
76855;DHT22;66343;44.588;33.450;2023-07-13T06:48:21;26.15;43.25
76855;DHT22;66343;44.588;33.450;2023-07-13T06:50:50;26.17;43.21
76855;DHT22;66343;44.588;33.450;2023-07-13T06:53:21;26.20;43.80
76855;DHT22;66343;44.588;33.450;2023-07-13T06:55:51;26.23;43.32
76855;DHT22;66343;44.588;33.450;2023-07-13T06:58:27;26.19;43.21
76855;DHT22;66343;44.588;33.450;2023-07-13T07:00:56;26.13;43.04
76855;DHT22;66343;44.588;33.450;2023-07-13T07:03:28;26.13;43.16
76855;DHT22;66343;44.588;33.450;2023-07-13T07:06:05;26.13;44.00
76855;DHT22;66343;44.588;33.450;2023-07-13T07:08:36;26.12;44.11
76855;DHT22;66343;44.588;33.450;2023-07-13T07:11:07;26.10;43.51
76855;DHT22;66343;44.588;33.450;2023-07-13T07:13:38;26.12;43.74
76855;DHT22;66343;44.588;33.450;2023-07-13T07:16:10;26.15;45.17
76855;DHT22;66343;44.588;33.450;2023-07-13T07:18:40;26.05;42.79
76855;DHT22;66343;44.588;33.450;2023-07-13T07:21:10;26.04;43.19
76855;DHT22;66343;44.588;33.450;2023-07-13T07:23:43;26.05;43.74
76855;DHT22;66343;44.588;33.450;2023-07-13T07:26:13;26.04;44.48
76855;DHT22;66343;44.588;33.450;2023-07-13T07:28:44;26.08;44.60
76855;DHT22;66343;44.588;33.450;2023-07-13T07:31:36;26.18;44.29
76855;DHT22;66343;44.588;33.450;2023-07-13T07:34:09;26.19;44.28
76855;DHT22;66343;44.588;33.450;2023-07-13T07:36:39;26.27;44.03
76855;DHT22;66343;44.588;33.450;2023-07-13T07:39:12;26.30;43.86
76855;DHT22;66343;44.588;33.450;2023-07-13T07:41:42;26.41;43.48
76855;DHT22;66343;44.588;33.450;2023-07-13T07:44:27;26.50;44.00
76855;DHT22;66343;44.588;33.450;2023-07-13T07:47:00;26.55;43.48
76855;DHT22;66343;44.588;33.450;2023-07-13T07:49:30;26.61;42.07
76855;DHT22;66343;44.588;33.450;2023-07-13T07:52:02;26.53;42.39
76855;DHT22;66343;44.588;33.450;2023-07-13T07:54:36;26.46;43.07
76855;DHT22;66343;44.588;33.450;2023-07-13T07:57:08;26.46;43.87
76855;DHT22;66343;44.588;33.450;2023-07-13T07:59:42;26.38;44.13
76855;DHT22;66343;44.588;33.450;2023-07-13T08:02:15;26.38;45.57
76855;DHT22;66343;44.588;33.450;2023-07-13T08:05:05;26.35;46.35
76855;DHT22;66343;44.588;33.450;2023-07-13T08:07:41;26.30;46.72
76855;DHT22;66343;44.588;33.450;2023-07-13T08:10:15;26.28;47.99
76855;DHT22;66343;44.588;33.450;2023-07-13T08:12:45;26.32;48.23
76855;DHT22;66343;44.588;33.450;2023-07-13T08:15:34;26.32;47.86
76855;DHT22;66343;44.588;33.450;2023-07-13T08:18:06;26.37;48.94
76855;DHT22;66343;44.588;33.450;2023-07-13T08:20:39;26.39;48.26
76855;DHT22;66343;44.588;33.450;2023-07-13T08:23:10;26.45;46.73
76855;DHT22;66343;44.588;33.450;2023-07-13T08:25:53;26.51;46.01
76855;DHT22;66343;44.588;33.450;2023-07-13T08:28:25;26.60;44.86
76855;DHT22;66343;44.588;33.450;2023-07-13T08:31:00;26.60;43.19
76855;DHT22;66343;44.588;33.450;2023-07-13T08:33:29;26.65;43.10
76855;DHT22;66343;44.588;33.450;2023-07-13T08:36:01;26.72;44.39
76855;DHT22;66343;44.588;33.450;2023-07-13T08:38:34;26.84;43.95
76855;DHT22;66343;44.588;33.450;2023-07-13T08:41:17;26.85;43.77
76855;DHT22;66343;44.588;33.450;2023-07-13T08:43:56;26.86;43.39
76855;DHT22;66343;44.588;33.450;2023-07-13T08:46:34;26.83;42.53
76855;DHT22;66343;44.588;33.450;2023-07-13T08:49:17;26.85;42.67
76855;DHT22;66343;44.588;33.450;2023-07-13T08:51:57;26.95;42.96
76855;DHT22;66343;44.588;33.450;2023-07-13T08:54:46;27.07;43.59
76855;DHT22;66343;44.588;33.450;2023-07-13T08:57:27;27.22;43.48
76855;DHT22;66343;44.588;33.450;2023-07-13T08:59:59;27.47;42.36
76855;DHT22;66343;44.588;33.450;2023-07-13T09:05:17;27.30;39.27
76855;DHT22;66343;44.588;33.450;2023-07-13T09:11:21;27.29;42.15
76855;DHT22;66343;44.588;33.450;2023-07-13T09:16:49;27.22;39.94
76855;DHT22;66343;44.588;33.450;2023-07-13T09:19:25;27.26;42.25
76855;DHT22;66343;44.588;33.450;2023-07-13T09:21:58;27.29;40.25
76855;DHT22;66343;44.588;33.450;2023-07-13T09:24:38;27.24;40.78
76855;DHT22;66343;44.588;33.450;2023-07-13T09:27:23;27.20;40.62
76855;DHT22;66343;44.588;33.450;2023-07-13T09:32:50;27.04;40.01
76855;DHT22;66343;44.588;33.450;2023-07-13T09:35:26;27.02;39.97
76855;DHT22;66343;44.588;33.450;2023-07-13T09:38:09;26.99;40.63
76855;DHT22;66343;44.588;33.450;2023-07-13T09:44:12;26.92;40.88
76855;DHT22;66343;44.588;33.450;2023-07-13T09:46:52;27.00;42.60
76855;DHT22;66343;44.588;33.450;2023-07-13T09:49:29;27.09;42.10
76855;DHT22;66343;44.588;33.450;2023-07-13T09:52:11;27.15;40.82
76855;DHT22;66343;44.588;33.450;2023-07-13T09:54:49;27.16;41.50
76855;DHT22;66343;44.588;33.450;2023-07-13T09:57:23;27.12;40.93
76855;DHT22;66343;44.588;33.450;2023-07-13T10:00:21;27.05;41.55
76855;DHT22;66343;44.588;33.450;2023-07-13T10:03:05;27.09;41.50
76855;DHT22;66343;44.588;33.450;2023-07-13T10:05:41;27.12;41.99
76855;DHT22;66343;44.588;33.450;2023-07-13T10:08:31;27.21;41.77
76855;DHT22;66343;44.588;33.450;2023-07-13T10:11:10;27.28;42.90
76855;DHT22;66343;44.588;33.450;2023-07-13T10:13:46;27.26;42.22
76855;DHT22;66343;44.588;33.450;2023-07-13T10:16:18;27.35;43.55
76855;DHT22;66343;44.588;33.450;2023-07-13T10:19:41;27.46;43.28
76855;DHT22;66343;44.588;33.450;2023-07-13T10:25:22;27.59;43.36
76855;DHT22;66343;44.588;33.450;2023-07-13T10:30:55;27.24;45.25
76855;DHT22;66343;44.588;33.450;2023-07-13T10:33:27;27.34;45.31
76855;DHT22;66343;44.588;33.450;2023-07-13T10:36:46;27.53;46.80
76855;DHT22;66343;44.588;33.450;2023-07-13T10:38:59;27.80;44.53
76855;DHT22;66343;44.588;33.450;2023-07-13T10:41:37;28.12;43.31
76855;DHT22;66343;44.588;33.450;2023-07-13T10:44:16;28.32;39.00
76855;DHT22;66343;44.588;33.450;2023-07-13T10:46:49;28.34;40.81
76855;DHT22;66343;44.588;33.450;2023-07-13T10:49:27;28.38;39.24
76855;DHT22;66343;44.588;33.450;2023-07-13T10:52:00;28.29;39.27
76855;DHT22;66343;44.588;33.450;2023-07-13T10:54:36;28.42;37.75
76855;DHT22;66343;44.588;33.450;2023-07-13T10:59:43;28.52;35.48
76855;DHT22;66343;44.588;33.450;2023-07-13T11:02:35;28.48;36.63
76855;DHT22;66343;44.588;33.450;2023-07-13T11:05:35;28.56;36.12
76855;DHT22;66343;44.588;33.450;2023-07-13T11:08:50;28.61;35.94
76855;DHT22;66343;44.588;33.450;2023-07-13T11:14:03;28.87;36.94
76855;DHT22;66343;44.588;33.450;2023-07-13T11:16:48;29.07;37.89
76855;DHT22;66343;44.588;33.450;2023-07-13T11:22:10;29.18;36.71
76855;DHT22;66343;44.588;33.450;2023-07-13T11:25:00;29.29;37.43
76855;DHT22;66343;44.588;33.450;2023-07-13T11:27:42;29.53;37.79
76855;DHT22;66343;44.588;33.450;2023-07-13T11:35:53;29.62;34.82
76855;DHT22;66343;44.588;33.450;2023-07-13T11:39:21;29.47;34.27
76855;DHT22;66343;44.588;33.450;2023-07-13T11:41:54;29.22;34.83
76855;DHT22;66343;44.588;33.450;2023-07-13T11:44:33;29.18;34.38
76855;DHT22;66343;44.588;33.450;2023-07-13T11:47:18;29.09;34.53
76855;DHT22;66343;44.588;33.450;2023-07-13T11:49:58;29.09;35.28
76855;DHT22;66343;44.588;33.450;2023-07-13T11:52:38;29.27;34.83
76855;DHT22;66343;44.588;33.450;2023-07-13T11:55:16;29.32;34.90
76855;DHT22;66343;44.588;33.450;2023-07-13T11:57:58;29.37;34.99
76855;DHT22;66343;44.588;33.450;2023-07-13T12:00:32;29.63;34.63
76855;DHT22;66343;44.588;33.450;2023-07-13T12:03:07;29.85;33.86
76855;DHT22;66343;44.588;33.450;2023-07-13T12:05:57;29.79;33.89
76855;DHT22;66343;44.588;33.450;2023-07-13T12:08:38;29.97;34.16
76855;DHT22;66343;44.588;33.450;2023-07-13T12:11:18;29.81;32.73
76855;DHT22;66343;44.588;33.450;2023-07-13T12:13:53;29.60;33.67
76855;DHT22;66343;44.588;33.450;2023-07-13T12:16:33;29.50;34.13
76855;DHT22;66343;44.588;33.450;2023-07-13T12:19:21;29.31;35.07
76855;DHT22;66343;44.588;33.450;2023-07-13T12:21:54;29.08;34.56
76855;DHT22;66343;44.588;33.450;2023-07-13T12:24:44;29.04;35.17
76855;DHT22;66343;44.588;33.450;2023-07-13T12:30:24;29.31;35.92
76855;DHT22;66343;44.588;33.450;2023-07-13T12:33:12;29.14;34.98
76855;DHT22;66343;44.588;33.450;2023-07-13T12:35:49;29.15;35.38
76855;DHT22;66343;44.588;33.450;2023-07-13T12:38:26;29.05;34.97
76855;DHT22;66343;44.588;33.450;2023-07-13T12:41:01;28.86;36.32
76855;DHT22;66343;44.588;33.450;2023-07-13T12:43:38;28.74;36.27
76855;DHT22;66343;44.588;33.450;2023-07-13T12:46:20;28.78;37.48
76855;DHT22;66343;44.588;33.450;2023-07-13T12:48:57;28.82;36.57
76855;DHT22;66343;44.588;33.450;2023-07-13T12:51:56;29.02;36.57
76855;DHT22;66343;44.588;33.450;2023-07-13T12:54:29;29.13;35.44
76855;DHT22;66343;44.588;33.450;2023-07-13T12:57:07;29.46;35.24
76855;DHT22;66343;44.588;33.450;2023-07-13T12:59:57;29.96;35.20
76855;DHT22;66343;44.588;33.450;2023-07-13T13:02:33;30.05;35.79
76855;DHT22;66343;44.588;33.450;2023-07-13T13:05:04;30.08;34.19
76855;DHT22;66343;44.588;33.450;2023-07-13T13:07:40;30.01;34.30
76855;DHT22;66343;44.588;33.450;2023-07-13T13:10:13;29.97;34.66
76855;DHT22;66343;44.588;33.450;2023-07-13T13:12:46;29.95;35.61
76855;DHT22;66343;44.588;33.450;2023-07-13T13:15:20;29.91;36.18
76855;DHT22;66343;44.588;33.450;2023-07-13T13:17:52;29.86;35.52
76855;DHT22;66343;44.588;33.450;2023-07-13T13:20:22;29.83;36.52
76855;DHT22;66343;44.588;33.450;2023-07-13T13:22:58;29.76;36.89
76855;DHT22;66343;44.588;33.450;2023-07-13T13:25:32;29.65;37.64
76855;DHT22;66343;44.588;33.450;2023-07-13T13:28:02;29.78;36.48
76855;DHT22;66343;44.588;33.450;2023-07-13T13:30:34;30.03;36.11
76855;DHT22;66343;44.588;33.450;2023-07-13T13:33:13;30.07;36.99
76855;DHT22;66343;44.588;33.450;2023-07-13T13:35:44;30.00;36.53
76855;DHT22;66343;44.588;33.450;2023-07-13T13:38:16;29.86;36.69
76855;DHT22;66343;44.588;33.450;2023-07-13T13:40:48;29.72;37.55
76855;DHT22;66343;44.588;33.450;2023-07-13T13:43:26;29.64;38.35
76855;DHT22;66343;44.588;33.450;2023-07-13T13:45:59;29.46;38.00
76855;DHT22;66343;44.588;33.450;2023-07-13T13:48:36;29.50;38.01
76855;DHT22;66343;44.588;33.450;2023-07-13T13:51:17;29.54;38.24
76855;DHT22;66343;44.588;33.450;2023-07-13T13:53:48;29.71;37.86
76855;DHT22;66343;44.588;33.450;2023-07-13T13:56:21;29.88;37.91
76855;DHT22;66343;44.588;33.450;2023-07-13T13:58:52;30.00;37.33
76855;DHT22;66343;44.588;33.450;2023-07-13T14:01:29;29.77;39.08
76855;DHT22;66343;44.588;33.450;2023-07-13T14:04:00;29.52;38.77
76855;DHT22;66343;44.588;33.450;2023-07-13T14:06:31;29.34;38.57
76855;DHT22;66343;44.588;33.450;2023-07-13T14:09:07;29.18;39.07
76855;DHT22;66343;44.588;33.450;2023-07-13T14:11:41;28.86;39.72
76855;DHT22;66343;44.588;33.450;2023-07-13T14:14:19;28.63;40.81
76855;DHT22;66343;44.588;33.450;2023-07-13T14:16:51;28.65;41.29
76855;DHT22;66343;44.588;33.450;2023-07-13T14:19:23;28.56;40.97
76855;DHT22;66343;44.588;33.450;2023-07-13T14:21:58;28.48;41.87
76855;DHT22;66343;44.588;33.450;2023-07-13T14:24:28;28.31;41.33
76855;DHT22;66343;44.588;33.450;2023-07-13T14:27:01;28.01;42.45
76855;DHT22;66343;44.588;33.450;2023-07-13T14:29:31;27.99;43.05
76855;DHT22;66343;44.588;33.450;2023-07-13T14:32:10;28.13;42.65
76855;DHT22;66343;44.588;33.450;2023-07-13T14:34:44;28.42;42.31
76855;DHT22;66343;44.588;33.450;2023-07-13T14:37:16;28.64;41.70
76855;DHT22;66343;44.588;33.450;2023-07-13T14:39:47;28.86;41.36
76855;DHT22;66343;44.588;33.450;2023-07-13T14:42:19;29.02;41.10
76855;DHT22;66343;44.588;33.450;2023-07-13T14:44:54;29.07;41.10
76855;DHT22;66343;44.588;33.450;2023-07-13T14:47:26;29.35;41.84
76855;DHT22;66343;44.588;33.450;2023-07-13T14:50:00;29.57;40.61
76855;DHT22;66343;44.588;33.450;2023-07-13T14:52:32;29.79;39.81
76855;DHT22;66343;44.588;33.450;2023-07-13T14:55:03;30.09;39.44
76855;DHT22;66343;44.588;33.450;2023-07-13T14:57:35;30.12;39.10
76855;DHT22;66343;44.588;33.450;2023-07-13T15:00:18;30.01;38.65
76855;DHT22;66343;44.588;33.450;2023-07-13T15:02:53;29.96;39.57
76855;DHT22;66343;44.588;33.450;2023-07-13T15:05:28;29.89;39.98
76855;DHT22;66343;44.588;33.450;2023-07-13T15:08:04;29.91;40.20
76855;DHT22;66343;44.588;33.450;2023-07-13T15:10:40;30.02;40.11
76855;DHT22;66343;44.588;33.450;2023-07-13T15:15:53;29.77;40.36
76855;DHT22;66343;44.588;33.450;2023-07-13T15:18:24;29.86;40.19
76855;DHT22;66343;44.588;33.450;2023-07-13T15:20:57;29.81;39.47
76855;DHT22;66343;44.588;33.450;2023-07-13T15:23:34;29.52;40.04
76855;DHT22;66343;44.588;33.450;2023-07-13T15:26:14;29.41;40.65
76855;DHT22;66343;44.588;33.450;2023-07-13T15:28:46;29.34;40.95
76855;DHT22;66343;44.588;33.450;2023-07-13T15:31:25;29.36;41.79
76855;DHT22;66343;44.588;33.450;2023-07-13T15:33:57;29.24;41.43
76855;DHT22;66343;44.588;33.450;2023-07-13T15:36:29;29.39;41.29
76855;DHT22;66343;44.588;33.450;2023-07-13T15:39:06;29.20;41.35
76855;DHT22;66343;44.588;33.450;2023-07-13T15:41:39;29.05;42.20
76855;DHT22;66343;44.588;33.450;2023-07-13T15:44:26;28.62;43.16
76855;DHT22;66343;44.588;33.450;2023-07-13T15:46:57;28.45;43.58
76855;DHT22;66343;44.588;33.450;2023-07-13T15:49:33;28.40;44.52
76855;DHT22;66343;44.588;33.450;2023-07-13T15:52:03;28.38;44.90
76855;DHT22;66343;44.588;33.450;2023-07-13T15:54:33;28.43;44.95
76855;DHT22;66343;44.588;33.450;2023-07-13T15:57:03;28.42;45.18
76855;DHT22;66343;44.588;33.450;2023-07-13T15:59:37;28.40;44.88
76855;DHT22;66343;44.588;33.450;2023-07-13T16:02:19;28.24;45.83
76855;DHT22;66343;44.588;33.450;2023-07-13T16:04:54;27.94;46.60
76855;DHT22;66343;44.588;33.450;2023-07-13T16:07:26;27.67;47.24
76855;DHT22;66343;44.588;33.450;2023-07-13T16:09:59;27.43;48.10
76855;DHT22;66343;44.588;33.450;2023-07-13T16:12:29;27.27;48.95
76855;DHT22;66343;44.588;33.450;2023-07-13T16:15:17;27.15;49.02
76855;DHT22;66343;44.588;33.450;2023-07-13T16:17:48;26.90;50.07
76855;DHT22;66343;44.588;33.450;2023-07-13T16:20:19;26.67;50.37
76855;DHT22;66343;44.588;33.450;2023-07-13T16:22:54;26.53;51.21
76855;DHT22;66343;44.588;33.450;2023-07-13T16:25:26;26.43;51.71
76855;DHT22;66343;44.588;33.450;2023-07-13T16:27:58;26.35;51.77
76855;DHT22;66343;44.588;33.450;2023-07-13T16:30:31;26.37;51.46
76855;DHT22;66343;44.588;33.450;2023-07-13T16:33:05;26.39;51.80
76855;DHT22;66343;44.588;33.450;2023-07-13T16:35:41;26.46;51.53
76855;DHT22;66343;44.588;33.450;2023-07-13T16:40:45;26.78;50.70
76855;DHT22;66343;44.588;33.450;2023-07-13T16:43:19;26.71;50.52